Time;durP1;ratioP1;P1;durP2;ratioP2;P2;SDS_P1;SDS_P2;PMS_P1;PMS_P2;Temp;Humidity;BMP_temperature;BMP_pressure;BME280_temperature;BME280_humidity;BME280_pressure;Samples;Min_cycle;Max_cycle;Signal;HPM_P1;HPM_P2
2024/01/11 00:01:23;;;;;;;61.15;19.42;;;;;;;-4.03;100.00;103091.78;5267941;28;20028;-72
2024/01/11 00:03:53;;;;;;;53.92;20.67;;;;;;;-4.01;100.00;103086.53;5268136;28;20024;-72
2024/01/11 00:06:24;;;;;;;57.33;20.42;;;;;;;-4.01;100.00;103089.16;5269005;28;20026;-72
2024/01/11 00:08:54;;;;;;;58.40;19.30;;;;;;;-4.02;100.00;103096.13;5267027;28;20508;-72
2024/01/11 00:11:25;;;;;;;53.65;19.92;;;;;;;-4.04;100.00;103097.91;5267494;28;20416;-72
2024/01/11 00:13:55;;;;;;;52.67;20.33;;;;;;;-4.03;100.00;103099.66;5269565;28;20038;-72
2024/01/11 00:16:26;;;;;;;54.53;19.15;;;;;;;-4.03;100.00;103093.53;5268907;28;20039;-72
2024/01/11 00:18:56;;;;;;;59.65;20.10;;;;;;;-4.05;100.00;103098.81;5266864;28;20085;-72
2024/01/11 00:21:27;;;;;;;58.42;18.73;;;;;;;-4.06;100.00;103104.06;5266900;28;20463;-72
2024/01/11 00:23:57;;;;;;;59.38;19.58;;;;;;;-4.07;100.00;103103.19;5268217;27;20421;-72
2024/01/11 00:26:28;;;;;;;53.67;18.17;;;;;;;-4.08;100.00;103109.31;5267692;28;20027;-72
2024/01/11 00:28:58;;;;;;;62.90;20.33;;;;;;;-4.10;100.00;103103.25;5269928;28;20110;-72
2024/01/11 00:31:29;;;;;;;54.55;19.95;;;;;;;-4.10;100.00;103105.84;5266499;28;20039;-72
2024/01/11 00:33:59;;;;;;;54.00;20.27;;;;;;;-4.11;100.00;103098.88;5266977;28;20019;-72
2024/01/11 00:36:30;;;;;;;50.97;18.88;;;;;;;-4.11;100.00;103098.88;5268108;28;20085;-72
2024/01/11 00:39:00;;;;;;;51.88;20.27;;;;;;;-4.11;100.00;103109.38;5267251;28;20040;-72
2024/01/11 00:41:31;;;;;;;53.50;19.75;;;;;;;-4.14;100.00;103104.16;5269130;28;20032;-72
2024/01/11 00:44:02;;;;;;;54.35;18.75;;;;;;;-4.17;100.00;103119.91;5268031;27;20031;-72
2024/01/11 00:46:34;;;;;;;55.05;18.67;;;;;;;-4.20;100.00;103112.94;5269477;28;20028;-72
2024/01/11 00:49:04;;;;;;;50.65;20.10;;;;;;;-4.21;100.00;103124.31;5266903;28;20039;-72
2024/01/11 00:51:35;;;;;;;53.03;17.75;;;;;;;-4.22;100.00;103125.22;5267527;28;20032;-72
2024/01/11 00:54:05;;;;;;;51.00;18.42;;;;;;;-4.21;100.00;103123.47;5268912;28;20161;-72
2024/01/11 00:56:36;;;;;;;49.30;18.48;;;;;;;-4.20;100.00;103127.81;5270696;28;20145;-72
2024/01/11 00:59:06;;;;;;;51.00;18.00;;;;;;;-4.20;100.00;103136.53;5262240;28;20020;-72
2024/01/11 01:01:37;;;;;;;53.85;17.52;;;;;;;-4.20;100.00;103133.06;5269477;28;20445;-73
2024/01/11 01:04:07;;;;;;;60.13;18.58;;;;;;;-4.20;100.00;103135.69;5266640;28;20028;-72
2024/01/11 01:06:37;;;;;;;48.55;17.83;;;;;;;-4.23;100.00;103133.06;5269872;28;20047;-72
2024/01/11 01:09:08;;;;;;;48.55;18.23;;;;;;;-4.24;100.00;103126.09;5267736;28;20031;-72
2024/01/11 01:11:39;;;;;;;57.63;19.73;;;;;;;-4.26;100.00;103136.63;5267854;28;20032;-72
2024/01/11 01:14:09;;;;;;;50.50;18.70;;;;;;;-4.29;100.00;103139.25;5267898;28;20026;-72
2024/01/11 01:16:40;;;;;;;46.88;17.70;;;;;;;-4.29;100.00;103138.38;5267543;28;20097;-72
2024/01/11 01:19:10;;;;;;;52.30;20.13;;;;;;;-4.32;100.00;103144.50;5267861;28;21164;-72
2024/01/11 01:21:41;;;;;;;51.90;17.70;;;;;;;-4.32;100.00;103143.66;5268431;28;20165;-72
2024/01/11 01:24:11;;;;;;;48.25;17.25;;;;;;;-4.35;100.00;103148.94;5267816;28;20031;-72
2024/01/11 01:26:42;;;;;;;54.80;19.45;;;;;;;-4.38;100.00;103141.09;5267906;28;20036;-72
2024/01/11 01:29:12;;;;;;;50.20;18.27;;;;;;;-4.41;100.00;103139.38;5268181;28;20039;-72
2024/01/11 01:31:43;;;;;;;47.95;18.42;;;;;;;-4.41;100.00;103141.13;5268968;28;20035;-72
2024/01/11 01:34:14;;;;;;;54.95;20.27;;;;;;;-4.41;100.00;103141.13;5268103;28;20063;-72
2024/01/11 01:36:45;;;;;;;50.22;19.05;;;;;;;-4.43;100.00;103152.47;5269253;28;20032;-72
2024/01/11 01:39:15;;;;;;;49.00;17.08;;;;;;;-4.43;100.00;103154.22;5266508;28;20412;-72
2024/01/11 01:41:46;;;;;;;56.95;19.45;;;;;;;-4.44;100.00;103150.75;5268982;28;20081;-72
2024/01/11 01:44:16;;;;;;;53.70;17.55;;;;;;;-4.48;100.00;103150.78;5268030;28;20036;-72
2024/01/11 01:46:48;;;;;;;54.33;19.48;;;;;;;-4.46;100.00;103152.53;5269673;28;20534;-72
2024/01/11 01:49:22;;;;;;;51.40;18.48;;;;;;;-4.46;100.00;103160.38;5271689;28;20036;-72
2024/01/11 01:51:53;;;;;;;57.72;20.55;;;;;;;-4.47;100.00;103163.91;5273514;28;20170;-72
2024/01/11 01:54:24;;;;;;;48.30;18.35;;;;;;;-4.49;100.00;103157.78;5270546;28;20413;-72
2024/01/11 01:56:55;;;;;;;52.63;19.52;;;;;;;-4.50;100.00;103168.28;5272832;28;20030;-73
2024/01/11 01:59:27;;;;;;;49.15;18.75;;;;;;;-4.51;100.00;103159.56;5273388;28;20024;-72
2024/01/11 02:01:58;;;;;;;54.92;18.85;;;;;;;-4.55;100.00;103170.06;5271910;28;20063;-72
2024/01/11 02:04:29;;;;;;;53.35;18.75;;;;;;;-4.59;100.00;103168.34;5270554;28;20684;-72
2024/01/11 02:07:00;;;;;;;47.83;17.60;;;;;;;-4.61;100.00;103172.75;5272791;28;20024;-72
2024/01/11 02:09:30;;;;;;;52.88;19.17;;;;;;;-4.65;100.00;103168.41;5270518;28;20137;-72
2024/01/11 02:12:02;;;;;;;50.05;18.35;;;;;;;-4.70;100.00;103176.31;5274656;28;20027;-72
2024/01/11 02:14:33;;;;;;;50.85;17.85;;;;;;;-4.73;100.00;103173.69;5281977;28;20214;-72
2024/01/11 02:17:03;;;;;;;55.75;19.15;;;;;;;-4.76;100.00;103184.22;5277649;28;20020;-73
2024/01/11 02:19:34;;;;;;;51.17;18.63;;;;;;;-4.78;100.00;103186.81;5275756;28;20034;-73
2024/01/11 02:22:15;;;;;;;50.80;17.48;;;;;;;-4.80;100.00;103185.97;5277421;28;20023;-72
2024/01/11 02:24:45;;;;;;;46.00;17.58;;;;;;;-4.80;100.00;103187.72;5277738;28;20031;-72
2024/01/11 02:27:16;;;;;;;49.70;18.73;;;;;;;-4.82;100.00;103179.88;5276288;28;20019;-73
2024/01/11 02:29:46;;;;;;;58.28;19.17;;;;;;;-4.80;100.00;103175.50;5279751;28;20534;-72
2024/01/11 02:32:17;;;;;;;62.65;20.55;;;;;;;-4.80;100.00;103185.97;5270884;28;20020;-73
2024/01/11 02:34:48;;;;;;;47.90;18.52;;;;;;;-4.81;100.00;103184.25;5263823;28;20446;-72
2024/01/11 02:37:19;;;;;;;54.83;17.75;;;;;;;-4.83;100.00;103179.88;5271721;28;20032;-72
2024/01/11 02:39:49;;;;;;;54.72;18.98;;;;;;;-4.84;100.00;103178.13;5275531;28;20019;-72
2024/01/11 02:42:20;;;;;;;53.10;19.17;;;;;;;-4.86;100.00;103182.53;5273611;28;20024;-72
2024/01/11 02:44:50;;;;;;;44.10;16.45;;;;;;;-4.92;100.00;103182.56;5278310;28;20028;-72
2024/01/11 02:47:21;;;;;;;53.92;20.33;;;;;;;-4.99;100.00;103177.34;5271219;28;20049;-72
2024/01/11 02:49:51;;;;;;;49.88;17.85;;;;;;;-5.03;100.00;103183.50;5281782;28;20020;-73
2024/01/11 02:52:23;;;;;;;58.42;19.67;;;;;;;-5.05;100.00;103172.16;5270160;28;20384;-72
2024/01/11 02:54:54;;;;;;;60.63;20.30;;;;;;;-5.05;100.00;103182.63;5277395;28;20023;-72
2024/01/11 02:57:24;;;;;;;55.83;19.40;;;;;;;-5.04;100.00;103173.03;5269244;28;20405;-73
2024/01/11 02:59:59;;;;;;;56.17;18.77;;;;;;;-5.04;100.00;103186.13;5281529;28;20027;-72
2024/01/11 03:02:30;;;;;;;50.25;17.50;;;;;;;-5.06;100.00;103185.28;5272806;28;20687;-72
2024/01/11 03:05:08;;;;;;;57.22;19.02;;;;;;;-5.07;100.00;103183.50;5275672;28;20027;-73
2024/01/11 03:07:39;;;;;;;59.10;20.60;;;;;;;-5.08;100.00;103182.66;5275393;28;20468;-72
2024/01/11 03:10:10;;;;;;;51.40;20.05;;;;;;;-5.07;100.00;103178.28;5270824;28;20032;-72
2024/01/11 03:12:41;;;;;;;60.65;21.50;;;;;;;-5.06;100.00;103172.19;5270867;28;20542;-73
2024/01/11 03:15:11;;;;;;;62.15;20.63;;;;;;;-5.05;100.00;103176.53;5277024;28;20023;-72
2024/01/11 03:17:42;;;;;;;57.20;19.17;;;;;;;-5.04;100.00;103165.19;5269763;28;20030;-72
2024/01/11 03:20:13;;;;;;;53.30;18.75;;;;;;;-5.01;100.00;103157.31;5269809;28;20024;-72
2024/01/11 03:22:46;;;;;;;65.45;21.45;;;;;;;-4.99;100.00;103161.66;5277382;28;20373;-72
2024/01/11 03:25:17;;;;;;;60.03;21.10;;;;;;;-4.96;100.00;103159.03;5272181;28;20107;-72
2024/01/11 03:27:47;;;;;;;64.95;21.67;;;;;;;-4.99;100.00;103166.88;5272453;28;20102;-72
2024/01/11 03:30:30;;;;;;;56.05;20.05;;;;;;;-4.97;100.00;103170.38;5280761;28;20477;-73
2024/01/11 03:33:01;;;;;;;61.38;21.27;;;;;;;-4.99;100.00;103161.66;5275712;28;20043;-72
2024/01/11 03:35:31;;;;;;;60.35;21.30;;;;;;;-5.04;100.00;103170.41;5269607;28;20036;-73
2024/01/11 03:38:02;;;;;;;53.92;20.17;;;;;;;-5.04;100.00;103173.03;5274459;28;20054;-73
2024/01/11 03:40:35;;;;;;;59.67;20.48;;;;;;;-5.05;100.00;103160.84;5274386;28;20027;-72
2024/01/11 03:43:06;;;;;;;56.58;20.88;;;;;;;-5.06;100.00;103162.59;5265555;28;20495;-72
2024/01/11 03:45:36;;;;;;;58.28;20.75;;;;;;;-5.07;100.00;103158.22;5271036;28;20385;-72
2024/01/11 03:48:07;;;;;;;56.90;20.10;;;;;;;-5.03;100.00;103154.69;5268673;28;20027;-72
2024/01/11 03:50:38;;;;;;;59.17;22.52;;;;;;;-5.00;100.00;103152.06;5267604;28;20062;-72
2024/01/11 03:53:08;;;;;;;57.38;20.52;;;;;;;-4.99;100.00;103145.94;5270734;28;20023;-72
2024/01/11 03:55:39;;;;;;;63.53;20.40;;;;;;;-4.98;100.00;103147.69;5272282;28;20370;-72
2024/01/11 03:58:09;;;;;;;65.22;20.80;;;;;;;-4.94;100.00;103153.78;5275556;28;20059;-72
2024/01/11 04:00:40;;;;;;;58.22;21.60;;;;;;;-4.95;100.00;103154.66;5275128;28;20077;-72
2024/01/11 04:03:10;;;;;;;62.70;20.90;;;;;;;-4.98;100.00;103155.53;5271485;28;20069;-72
2024/01/11 04:05:41;;;;;;;57.38;21.23;;;;;;;-4.98;100.00;103155.53;5278536;28;20444;-72
2024/01/11 04:08:11;;;;;;;67.22;21.85;;;;;;;-4.99;100.00;103159.03;5273915;28;20020;-72
2024/01/11 04:10:41;;;;;;;56.47;20.80;;;;;;;-5.00;100.00;103161.66;5271005;28;20477;-72
2024/01/11 04:13:12;;;;;;;64.55;21.40;;;;;;;-5.03;100.00;103162.53;5274969;28;20028;-72
2024/01/11 04:15:43;;;;;;;62.28;20.13;;;;;;;-5.05;100.00;103181.78;5271742;28;20035;-72
2024/01/11 04:18:13;;;;;;;55.80;19.90;;;;;;;-5.06;100.00;103170.44;5274653;28;20556;-71
2024/01/11 04:20:44;;;;;;;54.63;21.00;;;;;;;-5.06;100.00;103180.03;5276047;28;20088;-72
2024/01/11 04:23:14;;;;;;;59.90;20.77;;;;;;;-5.06;100.00;103186.16;5271863;28;20039;-72
2024/01/11 04:25:45;;;;;;;62.35;20.92;;;;;;;-5.05;100.00;103193.13;5269597;28;20042;-72
2024/01/11 04:28:16;;;;;;;60.53;21.08;;;;;;;-5.02;100.00;103180.00;5272063;28;20051;-72
2024/01/11 04:30:46;;;;;;;58.13;21.42;;;;;;;-5.02;100.00;103186.97;5271844;28;20023;-71
2024/01/11 04:33:17;;;;;;;59.28;20.45;;;;;;;-5.02;100.00;103187.88;5268479;28;20020;-72
2024/01/11 04:35:47;;;;;;;64.65;21.17;;;;;;;-4.98;100.00;103193.94;5275960;28;20119;-72
2024/01/11 04:38:18;;;;;;;60.08;21.55;;;;;;;-5.00;100.00;103191.34;5275261;28;20036;-72
2024/01/11 04:40:48;;;;;;;63.10;23.40;;;;;;;-5.02;100.00;103193.09;5273759;28;20497;-71
2024/01/11 04:43:19;;;;;;;57.70;21.63;;;;;;;-5.01;100.00;103196.59;5276845;28;20069;-72
2024/01/11 04:45:49;;;;;;;60.72;21.75;;;;;;;-5.03;100.00;103195.72;5267569;28;20394;-72
2024/01/11 04:48:20;;;;;;;58.15;21.50;;;;;;;-5.03;100.00;103193.09;5267550;28;20030;-72
2024/01/11 04:50:50;;;;;;;62.35;21.42;;;;;;;-5.03;100.00;103193.97;5272615;28;20036;-71
2024/01/11 04:53:20;;;;;;;53.17;20.63;;;;;;;-5.05;100.00;103208.81;5268228;28;20043;-72
2024/01/11 04:55:51;;;;;;;56.75;20.15;;;;;;;-5.06;100.00;103207.09;5270422;28;20115;-72
2024/01/11 04:58:22;;;;;;;66.63;21.55;;;;;;;-5.06;100.00;103201.84;5269866;28;20477;-72
2024/01/11 05:00:52;;;;;;;64.15;21.23;;;;;;;-5.06;100.00;103209.69;5273429;27;20114;-72
2024/01/11 05:03:23;;;;;;;56.28;19.90;;;;;;;-5.05;100.00;103214.06;5263824;28;20039;-72
2024/01/11 05:05:53;;;;;;;67.90;23.13;;;;;;;-5.06;100.00;103209.69;5272554;28;20540;-72
2024/01/11 05:08:24;;;;;;;59.05;20.77;;;;;;;-5.07;100.00;103210.59;5281650;28;20027;-72
2024/01/11 05:10:55;;;;;;;56.30;21.58;;;;;;;-5.09;100.00;103216.69;5275309;28;20117;-72
2024/01/11 05:13:26;;;;;;;60.53;20.40;;;;;;;-5.09;100.00;103214.94;5271367;28;20024;-72
2024/01/11 05:15:56;;;;;;;59.42;22.17;;;;;;;-5.11;100.00;103219.34;5270304;28;20020;-72
2024/01/11 05:18:27;;;;;;;68.15;21.67;;;;;;;-5.12;100.00;103224.53;5263281;28;20031;-72
2024/01/11 05:20:57;;;;;;;61.65;21.13;;;;;;;-5.15;100.00;103225.44;5270447;28;20027;-72
2024/01/11 05:23:27;;;;;;;73.05;22.67;;;;;;;-5.17;100.00;103234.16;5276808;28;20035;-72
2024/01/11 05:25:58;;;;;;;62.50;21.08;;;;;;;-5.22;100.00;103234.22;5276132;28;20027;-71
2024/01/11 05:28:29;;;;;;;60.17;21.15;;;;;;;-5.26;100.00;103233.34;5277982;28;20027;-72
2024/01/11 05:30:59;;;;;;;60.72;20.23;;;;;;;-5.29;100.00;103237.72;5271506;28;20392;-72
2024/01/11 05:33:30;;;;;;;64.43;21.50;;;;;;;-5.27;100.00;103234.25;5277112;28;20028;-71
2024/01/11 05:36:01;;;;;;;62.47;20.88;;;;;;;-5.26;100.00;103240.34;5271585;28;20031;-72
2024/01/11 05:38:32;;;;;;;58.88;21.15;;;;;;;-5.25;100.00;103247.31;5272338;28;20032;-72
2024/01/11 05:41:02;;;;;;;66.22;21.98;;;;;;;-5.26;100.00;103253.44;5273543;28;20035;-72
2024/01/11 05:43:33;;;;;;;68.20;23.13;;;;;;;-5.27;100.00;103254.28;5272461;28;20024;-72
2024/01/11 05:46:03;;;;;;;60.17;21.02;;;;;;;-5.28;100.00;103260.38;5269947;28;20389;-72
2024/01/11 05:48:34;;;;;;;71.30;22.35;;;;;;;-5.25;100.00;103278.72;5274751;28;20026;-72
2024/01/11 05:51:04;;;;;;;65.57;22.50;;;;;;;-5.25;100.00;103276.09;5270619;27;20027;-72
2024/01/11 05:53:36;;;;;;;62.50;22.88;;;;;;;-5.26;100.00;103282.22;5275671;28;20048;-72
2024/01/11 05:56:08;;;;;;;68.57;23.98;;;;;;;-5.28;100.00;103271.72;5278913;28;20028;-72
2024/01/11 05:58:39;;;;;;;63.40;22.33;;;;;;;-5.25;100.00;103265.63;5280587;27;20606;-72
2024/01/11 06:01:10;;;;;;;62.63;22.92;;;;;;;-5.25;100.00;103261.25;5277169;28;20073;-72
2024/01/11 06:03:40;;;;;;;74.15;21.92;;;;;;;-5.22;100.00;103261.25;5280489;28;20060;-72
2024/01/11 06:06:11;;;;;;;57.35;20.52;;;;;;;-5.22;100.00;103258.63;5274622;28;20493;-72
2024/01/11 06:08:43;;;;;;;60.28;21.58;;;;;;;-5.24;100.00;103270.84;5280057;28;20405;-72
2024/01/11 06:11:13;;;;;;;66.60;24.67;;;;;;;-5.26;100.00;103270.00;5278863;28;20035;-72
2024/01/11 06:13:44;;;;;;;65.25;23.52;;;;;;;-5.25;100.00;103263.00;5276942;27;20028;-72
2024/01/11 06:16:15;;;;;;;68.55;21.83;;;;;;;-5.28;100.00;103266.50;5274214;28;20024;-73
2024/01/11 06:18:45;;;;;;;67.82;23.25;;;;;;;-5.28;100.00;103276.09;5274728;28;20028;-72
2024/01/11 06:21:17;;;;;;;58.90;21.73;;;;;;;-5.32;100.00;103288.34;5270161;28;20026;-72
2024/01/11 06:23:48;;;;;;;73.13;23.55;;;;;;;-5.32;100.00;103288.34;5276118;28;20485;-72
2024/01/11 06:26:19;;;;;;;63.05;22.10;;;;;;;-5.32;100.00;103290.06;5269242;28;20067;-73
2024/01/11 06:28:49;;;;;;;64.20;21.38;;;;;;;-5.30;100.00;103293.56;5276822;28;20528;-73
2024/01/11 06:31:20;;;;;;;72.85;23.17;;;;;;;-5.31;100.00;103297.06;5274562;28;20020;-72
2024/01/11 06:33:51;;;;;;;57.92;21.27;;;;;;;-5.28;100.00;103299.63;5276207;28;20106;-73
2024/01/11 06:36:21;;;;;;;68.80;23.88;;;;;;;-5.26;100.00;103293.53;5266199;28;20024;-72
2024/01/11 06:38:52;;;;;;;64.80;22.90;;;;;;;-5.26;100.00;103293.53;5278208;28;20030;-73
2024/01/11 06:41:22;;;;;;;65.60;22.05;;;;;;;-5.25;100.00;103294.41;5277347;28;20532;-73
2024/01/11 06:43:53;;;;;;;68.88;23.27;;;;;;;-5.25;100.00;103292.66;5276226;28;20032;-73
2024/01/11 06:46:23;;;;;;;79.93;23.30;;;;;;;-5.24;100.00;103288.28;5272138;28;20059;-73
2024/01/11 06:48:54;;;;;;;70.72;22.63;;;;;;;-5.25;100.00;103291.78;5271638;28;20055;-72
2024/01/11 06:51:24;;;;;;;74.20;23.10;;;;;;;-5.28;100.00;103297.03;5273136;28;20457;-73
2024/01/11 06:53:55;;;;;;;65.70;23.83;;;;;;;-5.31;100.00;103292.69;5264772;28;20085;-72
2024/01/11 06:56:25;;;;;;;74.55;24.23;;;;;;;-5.35;100.00;103293.56;5274201;28;20027;-72
2024/01/11 06:58:56;;;;;;;69.75;23.00;;;;;;;-5.38;100.00;103303.16;5270394;28;20043;-72
2024/01/11 07:01:27;;;;;;;68.88;24.30;;;;;;;-5.43;100.00;103292.72;5272213;28;20114;-73
2024/01/11 07:03:57;;;;;;;75.20;25.05;;;;;;;-5.44;100.00;103296.22;5275519;28;20032;-72
2024/01/11 07:06:27;;;;;;;69.53;22.83;;;;;;;-5.47;100.00;103309.31;5274996;28;20477;-72
2024/01/11 07:08:58;;;;;;;63.13;23.10;;;;;;;-5.51;100.00;103299.72;5272114;28;20119;-73
2024/01/11 07:11:29;;;;;;;70.78;23.20;;;;;;;-5.52;100.00;103308.44;5262058;28;20032;-73
2024/01/11 07:14:00;;;;;;;70.18;22.63;;;;;;;-5.53;100.00;103314.53;5269672;27;20369;-72
2024/01/11 07:16:30;;;;;;;72.32;23.75;;;;;;;-5.56;100.00;103304.97;5271334;28;20024;-72
2024/01/11 07:19:01;;;;;;;64.97;22.30;;;;;;;-5.60;100.00;103318.91;5261610;28;21318;-73
2024/01/11 07:21:32;;;;;;;68.50;23.50;;;;;;;-5.62;100.00;103312.81;5268799;28;20415;-73
2024/01/11 07:24:03;;;;;;;67.07;23.02;;;;;;;-5.63;100.00;103331.97;5272516;28;20106;-73
2024/01/11 07:26:33;;;;;;;66.43;23.13;;;;;;;-5.65;100.00;103343.34;5274250;28;20058;-72
2024/01/11 07:29:04;;;;;;;66.60;24.15;;;;;;;-5.61;100.00;103337.22;5268421;28;20016;-73
2024/01/11 07:31:35;;;;;;;61.05;23.48;;;;;;;-5.60;100.00;103326.75;5269600;28;20039;-73
2024/01/11 07:34:05;;;;;;;70.68;25.10;;;;;;;-5.59;100.00;103332.84;5267873;28;20054;-73
2024/01/11 07:36:35;;;;;;;68.53;24.20;;;;;;;-5.60;100.00;103326.75;5278225;28;20027;-73
2024/01/11 07:39:06;;;;;;;70.90;23.77;;;;;;;-5.61;100.00;103311.94;5273356;28;20110;-72
2024/01/11 07:41:36;;;;;;;65.30;24.58;;;;;;;-5.61;100.00;103327.63;5268639;28;20455;-72
2024/01/11 07:44:07;;;;;;;73.63;23.58;;;;;;;-5.60;100.00;103318.91;5261510;27;20109;-72
2024/01/11 07:46:38;;;;;;;76.82;24.20;;;;;;;-5.58;100.00;103324.13;5272805;28;20020;-73
2024/01/11 07:49:10;;;;;;;74.88;24.33;;;;;;;-5.59;100.00;103312.81;5270250;28;20028;-72
2024/01/11 07:51:40;;;;;;;75.60;24.25;;;;;;;-5.58;100.00;103325.00;5267282;28;20028;-73
2024/01/11 07:54:11;;;;;;;71.03;23.65;;;;;;;-5.57;100.00;103315.41;5271942;28;20378;-72
2024/01/11 07:56:42;;;;;;;63.03;23.45;;;;;;;-5.54;100.00;103326.75;5271797;28;20028;-73
2024/01/11 07:59:14;;;;;;;75.50;24.88;;;;;;;-5.51;100.00;103331.13;5273145;28;20419;-73
2024/01/11 08:01:45;;;;;;;71.43;23.88;;;;;;;-5.49;100.00;103332.84;5273976;28;20023;-73
2024/01/11 08:04:15;;;;;;;67.95;24.17;;;;;;;-5.42;100.00;103336.34;5269650;28;20046;-73
2024/01/11 08:06:46;;;;;;;65.10;22.08;;;;;;;-5.29;100.00;103343.25;5269591;28;20016;-73
2024/01/11 08:09:18;;;;;;;70.18;24.67;;;;;;;-5.17;100.00;103324.06;5269002;28;20012;-73
2024/01/11 08:11:48;;;;;;;68.35;23.38;;;;;;;-5.12;100.00;103324.00;5268072;28;20448;-73
2024/01/11 08:14:18;;;;;;;72.35;23.48;;;;;;;-5.06;100.00;103335.34;5266790;28;20107;-72
2024/01/11 08:16:49;;;;;;;67.72;24.65;;;;;;;-5.03;100.00;103348.41;5270147;28;20032;-73
2024/01/11 08:19:19;;;;;;;65.75;24.35;;;;;;;-4.94;100.00;103352.75;5270326;28;20032;-73
2024/01/11 08:21:50;;;;;;;68.38;24.05;;;;;;;-4.79;100.00;103346.59;5267722;28;20077;-73
2024/01/11 08:24:20;;;;;;;79.45;24.70;;;;;;;-4.62;100.00;103329.03;5269798;28;20429;-73
2024/01/11 08:26:52;;;;;;;68.95;23.73;;;;;;;-4.47;100.00;103320.22;5268263;28;20697;-73
2024/01/11 08:29:22;;;;;;;68.22;24.27;;;;;;;-4.30;100.00;103327.97;5274917;28;20020;-73
2024/01/11 08:31:56;;;;;;;68.50;22.98;;;;;;;-4.07;100.00;103343.53;5264461;28;20119;-73
2024/01/11 08:34:26;;;;;;;67.07;23.70;;;;;;;-3.83;100.00;103355.59;5264448;28;20028;-73
2024/01/11 08:36:57;;;;;;;67.57;22.95;;;;;;;-3.52;100.00;103357.03;5266754;28;20096;-73
2024/01/11 08:39:27;;;;;;;62.20;23.80;;;;;;;-3.22;100.00;103349.75;5262220;28;20439;-73
2024/01/11 08:41:58;;;;;;;64.65;22.80;;;;;;;-2.94;100.00;103350.31;5270155;28;20481;-73
2024/01/11 08:44:32;;;;;;;54.03;22.35;;;;;;;-2.66;100.00;103361.34;5275805;28;20027;-73
2024/01/11 08:47:03;;;;;;;58.55;21.77;;;;;;;-2.44;100.00;103369.81;5272735;28;20020;-73
2024/01/11 08:49:36;;;;;;;66.13;23.90;;;;;;;-2.17;100.00;103373.81;5274990;28;20033;-73
2024/01/11 08:52:07;;;;;;;56.83;22.58;;;;;;;-1.82;100.00;103375.91;5263171;28;20056;-73
2024/01/11 08:54:38;;;;;;;62.22;23.13;;;;;;;-1.76;100.00;103369.66;5268982;28;20036;-73
2024/01/11 08:57:08;;;;;;;58.67;23.52;;;;;;;-1.66;100.00;103366.84;5266932;28;20078;-73
2024/01/11 08:59:39;;;;;;;67.18;23.73;;;;;;;-1.46;100.00;103358.59;5276671;28;20092;-73
2024/01/11 09:02:10;;;;;;;63.85;23.30;;;;;;;-1.24;100.00;103356.47;5269878;28;20023;-73
2024/01/11 09:04:41;;;;;;;67.70;22.55;;;;;;;-1.12;100.00;103363.25;5271489;28;20055;-73
2024/01/11 09:07:11;;;;;;;56.45;21.65;;;;;;;-0.98;100.00;103366.50;5272828;28;20020;-73
2024/01/11 09:09:42;;;;;;;63.40;22.95;;;;;;;-0.83;100.00;103368.81;5276414;28;20027;-73
2024/01/11 09:12:12;;;;;;;66.20;22.63;;;;;;;-0.79;100.00;103367.00;5266632;28;20024;-73
2024/01/11 09:14:43;;;;;;;57.05;24.98;;;;;;;-0.67;100.00;103360.59;5273891;28;20077;-74
2024/01/11 09:17:13;;;;;;;59.50;22.25;;;;;;;-0.55;100.00;103352.44;5269854;28;20022;-73
2024/01/11 09:19:44;;;;;;;52.08;20.90;;;;;;;-0.27;100.00;103345.63;5277393;28;20031;-73
2024/01/11 09:22:14;;;;;;;58.50;23.92;;;;;;;-0.32;100.00;103365.97;5274776;28;20020;-73
2024/01/11 09:24:45;;;;;;;52.70;21.88;;;;;;;-0.27;100.00;103372.00;5274983;28;20084;-73
2024/01/11 09:27:15;;;;;;;53.72;22.52;;;;;;;-0.15;100.00;103359.41;5273086;28;20016;-73
2024/01/11 09:29:46;;;;;;;56.95;21.80;;;;;;;-0.04;100.00;103368.84;5269723;28;20024;-73
2024/01/11 09:32:16;;;;;;;53.50;21.95;;;;;;;-0.20;100.00;103370.09;5272177;28;20050;-73
2024/01/11 09:34:47;;;;;;;55.67;22.65;;;;;;;-0.24;100.00;103376.34;5269960;28;20111;-74
2024/01/11 09:37:18;;;;;;;53.88;22.23;;;;;;;-0.17;100.00;103379.72;5269612;28;20034;-73
2024/01/11 09:39:49;;;;;;;60.53;24.52;;;;;;;-0.16;100.00;103377.03;5272351;28;20041;-74
2024/01/11 09:42:19;;;;;;;58.13;22.60;;;;;;;-0.06;100.00;103370.63;5272442;28;20023;-74
2024/01/11 09:44:50;;;;;;;58.08;22.60;;;;;;;0.18;100.00;103382.38;5275478;28;20026;-73
2024/01/11 09:47:21;;;;;;;52.53;20.88;;;;;;;0.31;100.00;103384.75;5270498;28;20020;-73
2024/01/11 09:49:54;;;;;;;58.30;22.33;;;;;;;0.43;100.00;103384.41;5274745;28;20095;-74
2024/01/11 09:52:26;;;;;;;47.88;21.05;;;;;;;0.47;100.00;103386.06;5276283;28;20028;-73
2024/01/11 09:54:56;;;;;;;54.85;23.10;;;;;;;0.48;100.00;103390.44;5273504;27;20791;-73
2024/01/11 09:57:30;;;;;;;51.47;22.00;;;;;;;0.33;100.00;103399.63;5268146;28;20023;-73
2024/01/11 10:00:04;;;;;;;57.83;21.75;;;;;;;0.35;100.00;103405.75;5269707;28;20077;-73
2024/01/11 10:02:34;;;;;;;59.95;22.77;;;;;;;0.36;100.00;103409.25;5275182;28;20020;-74
2024/01/11 10:05:06;;;;;;;54.83;21.67;;;;;;;0.42;100.00;103401.16;5268564;28;20031;-74
2024/01/11 10:07:37;;;;;;;52.35;21.80;;;;;;;0.39;100.00;103406.53;5270779;28;20020;-72
2024/01/11 10:10:09;;;;;;;54.17;20.30;;;;;;;0.37;100.00;103403.94;5270502;27;20035;-74
2024/01/11 10:12:39;;;;;;;59.08;21.90;;;;;;;0.43;100.00;103406.41;5272565;28;20515;-73
2024/01/11 10:15:11;;;;;;;50.30;21.27;;;;;;;0.43;100.00;103403.75;5271776;28;20020;-73
2024/01/11 10:17:44;;;;;;;51.72;21.08;;;;;;;0.55;100.00;103399.06;5269483;28;20374;-73
2024/01/11 10:20:15;;;;;;;52.78;21.10;;;;;;;0.65;100.00;103400.56;5271966;28;20024;-74
2024/01/11 10:22:46;;;;;;;56.13;21.63;;;;;;;0.76;100.00;103417.91;5274414;28;20054;-73
2024/01/11 10:25:17;;;;;;;59.28;22.35;;;;;;;0.89;100.00;103415.78;5271190;28;20079;-73
2024/01/11 10:27:48;;;;;;;52.92;20.88;;;;;;;0.86;100.00;103429.09;5271696;28;20270;-73
2024/01/11 10:30:20;;;;;;;52.13;20.83;;;;;;;0.89;100.00;103431.63;5269605;28;20080;-74
2024/01/11 10:32:50;;;;;;;58.67;21.98;;;;;;;0.80;100.00;103425.72;5273407;28;20027;-73
2024/01/11 10:35:22;;;;;;;48.03;20.15;;;;;;;0.65;100.00;103427.88;5269827;28;20023;-73
2024/01/11 10:37:55;;;;;;;55.90;21.25;;;;;;;0.55;100.00;103436.06;5269111;28;20489;-74
2024/01/11 10:40:25;;;;;;;55.88;20.65;;;;;;;0.61;100.00;103430.66;5270425;28;20090;-73
2024/01/11 10:43:01;;;;;;;52.95;21.13;;;;;;;0.73;100.00;103435.59;5272290;28;20023;-73
2024/01/11 10:45:38;;;;;;;52.90;21.65;;;;;;;0.72;100.00;103429.44;5270086;28;20055;-73
2024/01/11 10:48:14;;;;;;;54.10;20.77;;;;;;;0.81;100.00;103431.00;5269787;28;21591;-75
2024/01/11 10:50:47;;;;;;;56.17;21.92;;;;;;;0.92;100.00;103436.84;5271978;28;20028;-74
2024/01/11 10:53:32;;;;;;;52.90;20.80;;;;;;;0.85;100.00;103434.41;5271392;28;20069;-74
2024/01/11 10:56:04;;;;;;;51.53;21.83;;;;;;;0.85;100.00;103439.69;5267990;28;20032;-73
2024/01/11 10:58:35;;;;;;;46.88;19.77;;;;;;;0.87;100.00;103443.19;5267104;28;20019;-74
2024/01/11 11:01:06;;;;;;;48.10;19.90;;;;;;;0.82;100.00;103439.78;5269310;28;20020;-73
2024/01/11 11:03:38;;;;;;;47.75;19.40;;;;;;;0.75;100.00;103431.13;5269715;28;20396;-75
2024/01/11 11:06:09;;;;;;;47.30;20.20;;;;;;;0.70;100.00;103426.00;5270752;28;20028;-73
2024/01/11 11:08:41;;;;;;;51.00;19.95;;;;;;;0.71;100.00;103421.56;5268931;28;20027;-73
2024/01/11 11:11:13;;;;;;;49.33;19.90;;;;;;;0.85;100.00;103424.69;5269364;28;20034;-73
2024/01/11 11:13:47;;;;;;;46.40;19.20;;;;;;;0.88;100.00;103423.75;5265509;28;20032;-73
2024/01/11 11:16:18;;;;;;;47.83;20.83;;;;;;;0.92;100.00;103417.50;5267897;28;20024;-74
2024/01/11 11:18:53;;;;;;;54.15;20.63;;;;;;;0.95;100.00;103417.38;5269411;28;20026;-74